Hampton Head 4's and 8's - 2017

by MyRaceTime.co.uk


Results by Position

Published on: Saturday, February 4, 2017
Race Pos. > Category Pos. Comp. No. Comp. Name Division > Category > Club Name > Time (hh:mm:ss:t) Prize
1 1 452 WinColl8+ 2 J18A.8+ Winchester Coll 00:07:04:9
2 2 451 RAD-Corner 2 J18A.8+ Radley College 00:07:13:4
3 3 453 HAMPTON 2 J18A.8+ Hampton Sch BC 00:07:13:4
4 4 462 Mr Fantastic 2 J18A.8+ Eton Coll 00:07:14:5
5 5 456 Invisible Woman 2 J18A.8+ Eton Coll 00:07:20:4
6 6 457 MBC-Hardy 2 J18A.8+ Molesey BC 00:07:21:5
7 7 459 BDS-Lamb 2 J18A.8+ Bedford Sch 00:07:23:5
8 8 458 DUL-Turnbull 2 J18A.8+ Dulwich Coll 00:07:28:3
9 1 469 LEA-Badcott 2 J18A.4x- Lea RC 00:07:31:5
10 2 472 TSS-Aladay 2 J18A.4x- Tideway Scullers Sch 00:07:31:5
11 3 470 WBS-Smith 2 J18A.4x- Windsor Boys Sch 00:07:33:6
12 4 468 SAA-1 2 J18A.4x- Star & Arrow 00:07:34:0
13 5 467 MHD-Kleshnev 2 J18A.4x- Maidenhead RC 00:07:36:7
14 9 455 LOS Dickens 2 J18A.8+ Lon Oratory Sch 00:07:38:1
15 1 497 HAM - Trevor 2 J18A.8+ 2nd VIII Hampton Sch BC 00:07:41:5
16 6 473 NOW-Dudley 2 J18A.4x- Northwich RC 00:07:42:2
17 7 490 MHD-O Mahony 2 J18A.4x- Maidenhead RC 00:07:42:3
18 10 461 GMS-Cunningham 2 J18A.8+ Gt Marlow Sch 00:07:43:7
19 8 477 w17wsQ 2 J18A.4x- Westminster Sch 00:07:44:1
20 1 514 WLT-Suphi 2 J16A.4x- Walton RC 00:07:44:2
21 11 464 BMS-Colliver 2 J18A.8+ Bedford Modern Sch 00:07:44:3
22 12 466 LLA-Wing 2 J18A.8+ Llandaff RC 00:07:44:4
23 9 484 SAA-2 2 J18A.4x- Star & Arrow 00:07:44:5
24 10 492 CCS-Yate 2 J18A.4x- Claires Court Sch 00:07:44:9
25 1 159 Stark 1 J18A.4+ Eton Coll 00:07:45:0
26 11 482 GLB-Sullivan 2 J18A.4x- Globe 00:07:45:9
27 2 499 DUL-Alleyn 2 J18A.8+ 2nd VIII Dulwich Coll 00:07:46:1
28 1 153 HAM- SENIOR 4- 1 JSchA.4- Hampton Sch BC 00:07:47:3
29 12 476 LTU-Mayhew 2 J18A.4x- Latymer Upper Sch 00:07:48:2
30 2 154 LTU-Traeger 1 JSchA.4- Latymer Upper Sch 00:07:48:8
31 2 512 TSS-Hill 2 J16A.4x- Tideway Scullers Sch 00:07:49:3
32 3 500 BDS -2 2 J18A.8+ 2nd VIII Bedford Sch 00:07:49:3
33 4 501 Human Torch 2 J18A.8+ 2nd VIII Eton Coll 00:07:49:5
34 1 506 LTU-Harrison 2 J16A.8+ Latymer Upper Sch 00:07:50:2
35 2 502 Black 2 J16A.8+ St Pauls Sch BC 00:07:50:4
36 13 479 NSC-Burrell 2 J18A.4x- Norwich Sch 00:07:51:9
37 13 463 EMA-St Aubyn 2 J18A.8+ Emanuel Sch 00:07:52:4
38 1 552 Thompson 2 J15A.8+ Kings College Sch 00:07:53:2
39 1 25 WBS-Smith 1 J18A.2x Windsor Boys Sch 00:07:54:1
40 14 488 OUN-Davis Gimeno 2 J18A.4x- Oundle Sch 00:07:54:4
41 14 465 ORA-Kibble 2 J18A.8+ Oratory Sch 00:07:55:1
42 15 475 KCA-Edgar, 2 J18A.4x- Kings Sch Canterbury 00:07:55:9
43 2 545 LTU-J15A 2 J15A.8+ Latymer Upper Sch 00:07:56:2
44 3 544 SPS A 2 J15A.8+ St Pauls Sch BC 00:07:56:5
45 5 496 The Thing 2 J18A.8+ 2nd VIII Eton Coll 00:07:56:9
46 3 155 GMS-Peace 1 JSchA.4- Gt Marlow Sch 00:07:57:7
47 3 525 GLB-Bees 2 J16A.4x- Globe 00:07:59:4
48 1 541 RAD-Redley 2 J16A.8+ 2nd VIII Radley College 00:07:59:8
49 16 480 ASL-Troyer 2 J18A.4x- American Sch 00:08:00:2
50 4 556 LOS Yanez-Cunningham 2 J15A.8+ Lon Oratory Sch 00:08:00:4
51 5 548 HEN-Swinburn 2 J15A.8+ Henley RC 00:08:00:5
52 4 515 HEN-Issa 2 J16A.4x- Henley RC 00:08:00:9
53 17 489 NOW-Swithenbank 2 J18A.4x- Northwich RC 00:08:01:1
54 3 504 RAD-Taylor 2 J16A.8+ Radley College 00:08:02:1
55 4 157 MBC A 1 JSchA.4- Molesey BC 00:08:02:1
56 4 510 LOS Jinks 2 J16A.8+ Lon Oratory Sch 00:08:02:1
57 6 542 17ws15 8x 2 J15A.8+ Westminster Sch 00:08:02:1
58 2 170 Targaryen 1 J18A.4+ Eton Coll 00:08:02:2
59 3 164 BDS-Eggeling 1 J18A.4+ Bedford Sch 00:08:02:3
60 7 553 HAM-O Sullivan 2 J15A.8+ Hampton Sch BC 00:08:03:8
61 5 524 MOC-Williams 2 J16A.4x- Monmouth Comprehensive Sch 00:08:04:0
62 2 10 TSS-Kelly 1 J18A.2x Tideway Scullers Sch 00:08:04:3
63 8 560 J15A.8+ 2 J15A.8+ Winchester Coll 00:08:04:4
64 3 3 MHD-Kleshnev 1 J18A.2x Maidenhead RC 00:08:04:7
65 5 158 HAM-Cockett 1 JSchA.4- Hampton Sch BC 00:08:04:9
66 18 474 ABV-Andre 2 J18A.4x- A B Severn 00:08:05:1
67 1 570 BKS-Richards 2 W.J18A.8+ Becket RC 00:08:05:3
68 6 522 HWG - 16A 2 J16A.4x- RGS High Wycombe 00:08:06:0
69 5 508 BMS-Herbert 2 J16A.8+ Bedford Modern Sch 00:08:06:6
70 9 549 KCA-Kahol de Jong 2 J15A.8+ Kings Sch Canterbury 00:08:07:1
71 1 228 HEN-Swinburn 1 J15A.4x+ Henley RC 00:08:07:3
72 4 162 Lannister 1 J18A.4+ Eton Coll 00:08:09:1
73 10 543 HAM-Orme 2 J15A.8+ Hampton Sch BC 00:08:09:4
74 6 536 NSC-Bacic 2 JSchA.4- Norwich Sch 00:08:09:6
75 7 535 WLT-Pickering 2 JSchA.4- Walton RC 00:08:09:7
76 19 481 EMA-Wilson 2 J18A.4x- Emanuel Sch 00:08:09:9
77 5 160 BMS-Colliver 1 J18A.4+ Bedford Modern Sch 00:08:10:2
78 4 6 WBS-Shewell 1 J18A.2x Windsor Boys Sch 00:08:10:8
79 2 562 HEN-BUTTERWORTH 2 W.J18A.8+ Henley RC 00:08:10:8
80 1 574 HED-Little 2 W.J18A.4x- Headington Sch 00:08:11:2
81 1 537 HAM-Woodall 2 J16A.4- Hampton Sch BC 00:08:11:3
82 11 551 SES-Colson Lake 2 J15A.8+ St Edwards Sch 00:08:11:8
83 6 509 KGS J16 2 J16A.8+ Kingston G Sch 00:08:12:1
84 7 516 WBS-Philipson 2 J16A.4x- Windsor Boys Sch 00:08:12:2
85 2 540 HAM-Chan 2 J16A.8+ 2nd VIII Hampton Sch BC 00:08:12:3
86 12 547 DUL-Shackleton 2 J15A.8+ Dulwich Coll 00:08:12:8
87 1 186 KRC-Cramp 1 J16A.4+ Kingston RC 00:08:12:8
88 20 494 MOC-Jones 2 J18A.4x- Monmouth Comprehensive Sch 00:08:13:4
89 8 513 MBC-Miller 2 J16A.4x- Molesey BC 00:08:13:6
90 6 498 RAD-House 2 J18A.8+ 2nd VIII Radley College 00:08:14:1
91 5 12 WBS-Bodkin 1 J18A.2x Windsor Boys Sch 00:08:14:6
92 1 249 LTU-J15A 1 J15A.4+ Latymer Upper Sch 00:08:14:8
93 15 460 CAN-Evans 2 J18A.8+ Canford Sch 00:08:15:9
94 3 565 HED-Butler 2 W.J18A.8+ Headington Sch 00:08:16:0
95 1 602 Guns 2 J15A.8+ 2nd VIII Kings College Sch 00:08:16:4
96 13 550 RAD-Senior 2 J15A.8+ Radley College 00:08:16:7
97 6 163 LOS Joseph 1 J18A.4+ Lon Oratory Sch 00:08:16:8
98 2 538 HAM-Bridge 2 J16A.4- Hampton Sch BC 00:08:16:9
99 2 198 NSC-Hook 1 J16A.4+ Norwich Sch 00:08:17:9
100 6 16 GLB-Sullivan-2 1 J18A.2x Globe 00:08:18:2
101 7 5 GLB-Sullivan 1 J18A.2x Globe 00:08:18:3
102 14 557 NSC-J15 I 2 J15A.8+ Norwich Sch 00:08:18:4
103 8 15 MHD-O Mahony 1 J18A.2x Maidenhead RC 00:08:18:7
104 2 575 MBC-A 2 W.J18A.4x- Molesey BC 00:08:18:7
105 7 168 WIN-Davidson 1 J18A.4+ Winchester Coll 00:08:18:8
106 4 564 LEH 2 W.J18A.8+ Lady E Holles 00:08:18:8
107 15 559 BDS-Celeritas2 2 J15A.8+ Bedford Sch 00:08:19:0
108 9 24 NOW-Coffey 1 J18A.2x Northwich RC 00:08:19:2
109 7 505 ETN- Tanaka 2 J16A.8+ Eton Coll 00:08:19:8
110 2 663 TSS-Murphie 2 J15A.4x+ Tideway Scullers Sch 00:08:19:8
111 21 493 LTU-Hussey 2 J18A.4x- Latymer Upper Sch 00:08:20:0
112 2 600 RAD-Berry 2 J15A.8+ 2nd VIII Radley College 00:08:20:0
113 22 485 TFN-Morris 2 J18A.4x- Tiffin Sch 00:08:20:2
114 1 50 LEA-den Dulk 1 J16A.2x Lea RC 00:08:20:5
115 5 567 SBT-Brister-Runnacles 2 W.J18A.8+ Surbiton H Sch 00:08:20:7
116 1 29 MBC-A 1 J18A.2- Molesey BC 00:08:20:8
117 1 642 LTU-A 2 W.J15A.8+ Latymer Upper Sch 00:08:20:8
118 9 520 NSC-Davis 2 J16A.4x- Norwich Sch 00:08:21:0
119 2 30 HAM-Worthington 1 J18A.2- Hampton Sch BC 00:08:21:1
120 3 604 NSC-J15 II 2 J15A.8+ 2nd VIII Norwich Sch 00:08:21:7
121 16 546 BDS-Murray 2 J15A.8+ Bedford Sch 00:08:21:7
122 3 41 MBC-B 1 J18A.2- Molesey BC 00:08:21:7
123 2 644 HEN-Howard 2 W.J15A.8+ Henley RC 00:08:22:3
124 10 17 NSC-Tremelling 1 J18A.2x Norwich Sch 00:08:22:5
125 11 8 NOW-Dudley 1 J18A.2x Northwich RC 00:08:23:3
126 3 654 ABV-Sayers 2 J15A.4x+ A B Severn 00:08:23:3
127 4 653 WLT-McLennan 2 J15A.4x+ Walton RC 00:08:23:4
128 5 660 WBS-Howe 2 J15A.4x+ Windsor Boys Sch 00:08:23:4
129 3 190 LOS Davies 1 J16A.4+ Lon Oratory Sch 00:08:24:1
130 8 156 LOS Jones 1 JSchA.4- Lon Oratory Sch 00:08:24:1
131 3 586 HEN-Morgan 2 W.J18A.4x- Henley RC 00:08:24:3
132 6 656 CCS-Nash 2 J15A.4x+ Claires Court Sch 00:08:24:5
133 8 165 LTU-Ward 1 J18A.4+ Latymer Upper Sch 00:08:25:2
134 2 48 HEN-Issa 1 J16A.2x Henley RC 00:08:25:3
135 4 606 LOS Chapman 2 J15A.8+ 2nd VIII Lon Oratory Sch 00:08:25:6
136 10 531 WBS-Tebbit 2 J16A.4x- Windsor Boys Sch 00:08:26:9
137 4 579 LEH 2 W.J18A.4x- Lady E Holles 00:08:27:7
138 5 577 LTU-Nelson 2 W.J18A.4x- Latymer Upper Sch 00:08:27:8
139 3 643 LEH-Cross 2 W.J15A.8+ Lady E Holles 00:08:28:1
140 7 231 HEN-Beattie 1 J15A.4x+ Henley RC 00:08:28:2
141 17 554 BMS-Fox 2 J15A.8+ Bedford Modern Sch 00:08:28:3
142 4 42 HAM - MT 1 J18A.2- Hampton Sch BC 00:08:28:4
143 18 558 WGT-Moisley 2 J15A.8+ Whitgift Sch BC 00:08:28:4
144 23 487 HWG-18A 2 J18A.4x- RGS High Wycombe 00:08:28:5
145 5 36 LLA-Davies 1 J18A.2- Llandaff RC 00:08:28:8
146 2 259 WLT-O Neill 1 J15A.4+ Walton RC 00:08:28:9
147 6 572 PHS 2 W.J18A.8+ Putney High Sch 00:08:29:1
148 7 571 GMS-Jobbagy 2 W.J18A.8+ Gt Marlow Sch 00:08:29:2
149 1 631 HEN-O Donohue 2 W.J16A.4x- Henley RC 00:08:29:4
150 3 254 HAM-A 1 J15A.4+ Hampton Sch BC 00:08:29:5
151 6 580 LLA-Wright 2 W.J18A.4x- Llandaff RC 00:08:29:8
152 5 603 WES-Odusanya 2 J15A.8+ 2nd VIII Westminster Sch 00:08:29:8
153 9 166 HAM-Wright 1 J18A.4+ Hampton Sch BC 00:08:30:1
154 4 185 SPS-2 1 J16A.4+ St Pauls Sch BC 00:08:30:2
155 19 561 KGS- Farrer 2 J15A.8+ Kingston G Sch 00:08:30:6
156 8 659 HWG-A 15 2 J15A.4x+ RGS High Wycombe 00:08:31:3
157 1 178 SPG-Valt 1 W.JSchA.4- St Pauls Girls Sch BC 00:08:31:9
158 24 483 SES-Peiker 2 J18A.4x- St Edwards Sch 00:08:31:9
159 5 194 BMS-Herbert 1 J16A.4+ Bedford Modern Sch 00:08:31:9
160 9 658 MHD-Overturf 2 J15A.4x+ Maidenhead RC 00:08:32:0
161 11 527 BKS-IWANSKYJ 2 J16A.4x- Becket RC 00:08:32:3
162 2 174 LEH-Taylor 1 W.JSchA.4- Lady E Holles 00:08:32:4
163 4 250 SPS 1 1 J15A.4+ St Pauls Sch BC 00:08:32:5
164 6 38 NSC-Bacic 1 J18A.2- Norwich Sch 00:08:32:5
165 1 147 WLT-Heywood 1 J16A.2- Walton RC 00:08:32:9
166 5 251 LOS Kaleta 1 J15A.4+ Lon Oratory Sch 00:08:33:0
167 1 246 GLB-Watson-Gandy 1 J15A.2x Globe 00:08:33:2
168 12 529 TFN-Lambert 2 J16A.4x- Tiffin Sch 00:08:33:7
169 7 584 NOW-Wolstencroft 2 W.J18A.4x- Northwich RC 00:08:33:9
170 8 566 SPG-Valt 2 W.J18A.8+ St Pauls Girls Sch BC 00:08:34:0
171 8 581 SWP-Taylor 2 W.J18A.4x- Sir William Perkins s Sch 00:08:34:2
172 6 255 LTU-B 1 J15A.4+ Latymer Upper Sch 00:08:34:5
173 12 19 NOW-Burke 1 J18A.2x Northwich RC 00:08:34:9
174 3 46 WLT-Suphi 1 J16A.2x Walton RC 00:08:35:6
175 6 599 SPS 1 2 J15A.8+ 2nd VIII St Pauls Sch BC 00:08:35:8
176 9 576 TRC-Munyard 2 W.J18A.4x- Thames RC 00:08:36:1
177 3 639 LEH 2 W.JSchA.4- Lady E Holles 00:08:36:4
178 10 657 MBC-A 2 J15A.4x+ Molesey BC 00:08:36:6
179 1 265 LTU-A 1 W.J15A.4x+ Latymer Upper Sch 00:08:36:6
180 6 187 HAM-Georghiades 1 J16A.4+ Hampton Sch BC 00:08:36:8
181 7 605 HAM-Birchall 2 J15A.8+ 2nd VIII Hampton Sch BC 00:08:37:7
182 13 532 WLT-Nienow 2 J16A.4x- Walton RC 00:08:38:3
183 4 175 HEN-Lock 1 W.JSchA.4- Henley RC 00:08:38:5
184 2 277 HEN-Hills 1 W.J15A.4x+ Henley RC 00:08:38:7
185 4 57 NOW-Miles 1 J16A.2x Northwich RC 00:08:38:7
186 7 191 SPS-3 1 J16A.4+ St Pauls Sch BC 00:08:38:8
187 1 611 HED-Grainger 2 W.J16A.8+ Headington Sch 00:08:39:1
188 3 690 TSS-Lack 2 W.J15A.4x+ Tideway Scullers Sch 00:08:39:1
189 7 40 MHD-Somerville 1 J18A.2- Maidenhead RC 00:08:39:1
190 11 679 HEN-McLellan 2 J15A.4x+ Henley RC 00:08:39:3
191 10 593 ASL-Bake 2 W.J18A.4x- American Sch 00:08:39:7
192 12 664 WBS-Potts 2 J15A.4x+ Windsor Boys Sch 00:08:40:0
193 2 239 TSS-de St Croix 1 J15A.2x Tideway Scullers Sch 00:08:40:2
194 3 237 MHD-Overturf 1 J15A.2x Maidenhead RC 00:08:40:3
195 2 614 Leh 2 W.J16A.8+ Lady E Holles 00:08:40:5
196 4 278 LTU-B 1 W.J15A.4x+ Latymer Upper Sch 00:08:40:6
197 13 28 MBC-Lucas 1 J18A.2x Molesey BC 00:08:40:7
198 2 619 HED-Van Der Merwe 2 W.J16A.4x- Headington Sch 00:08:40:8
199 11 578 COX-Millard 2 W.J18A.4x- City of Oxford 00:08:41:1
200 12 587 BMS-Monaghan 2 W.J18A.4x- Bedford Modern Sch 00:08:41:2
201 8 179 ETN-Bewicke-Copley 1 J16A.4+ Eton Coll 00:08:41:5
202 14 9 ABV-Young 1 J18A.2x A B Severn 00:08:41:5
203 9 568 EMA-Thomas 2 W.J18A.8+ Emanuel Sch 00:08:41:8
204 10 167 GMS-Westfold 1 J18A.4+ Gt Marlow Sch 00:08:42:1
205 3 623 LTU-Hdjw 2 W.J16A.4x- Latymer Upper Sch 00:08:42:1
206 7 262 HAM-B 1 J15A.4+ Hampton Sch BC 00:08:42:3
207 15 21 KCA-Kahol de jong 1 J18A.2x Kings Sch Canterbury 00:08:42:6
208 9 188 ETN- Jain 1 J16A.4+ Eton Coll 00:08:42:6
209 4 236 MBC-Boret 1 J15A.2x Molesey BC 00:08:42:6
210 3 618 LEA-Millard 2 W.J16A.8+ Lea RC 00:08:42:7
211 5 56 LTU-Ferm 1 J16A.2x Latymer Upper Sch 00:08:42:9
212 8 263 LTU-J15C 1 J15A.4+ Latymer Upper Sch 00:08:42:9
213 6 52 WBS-Tebbit 1 J16A.2x Windsor Boys Sch 00:08:42:9
214 5 177 GMS-Armes 1 W.JSchA.4- Gt Marlow Sch 00:08:43:2
215 1 317 KRC-A 1 W.J15A.4+ Kingston RC 00:08:43:5
216 4 625 TSS-van Wachem 2 W.J16A.4x- Tideway Scullers Sch 00:08:43:6
217 9 253 NSC-J15 III 1 J15A.4+ Norwich Sch 00:08:43:8
218 13 590 MBC-B 2 W.J18A.4x- Molesey BC 00:08:43:8
219 6 176 BMS-Graham 1 W.JSchA.4- Bedford Modern Sch 00:08:44:6
220 8 43 MBC-C 1 J18A.2- Molesey BC 00:08:45:0
221 4 645 EMA-Holmes 2 W.J15A.8+ Emanuel Sch 00:08:45:4
222 4 613 SWP-Wax 2 W.J16A.8+ Sir William Perkins s Sch 00:08:45:6
223 5 632 NOW-Shirley 2 W.J16A.4x- Northwich RC 00:08:45:7
224 13 685 WBS-Islam 2 J15A.4x+ Windsor Boys Sch 00:08:45:7
225 7 63 GLB-Kirk 1 J16A.2x Globe 00:08:45:8
226 10 573 KCA-Abbott 2 W.J18A.8+ Kings Sch Canterbury 00:08:46:0
227 14 534 MGN-Galloway 2 J16A.4x- Magdalen Coll Sch 00:08:46:1
228 11 569 KGS- Girls 2 W.J18A.8+ Kingston G Sch 00:08:46:3
229 1 71 MBC-Dunford 1 W.J18A.2x Molesey BC 00:08:46:4
230 3 172 GMS-Honey 1 J16A.4- Gt Marlow Sch 00:08:46:4
231 9 35 BDS-Mitchell 1 J18A.2- Bedford Sch 00:08:46:4
232 5 275 LEH-Cross 1 W.J15A.4x+ Lady E Holles 00:08:46:4
233 2 88 HED-Little 1 W.J18A.2x Headington Sch 00:08:46:7
234 16 14 ASL-Mannhardt 1 J18A.2x American Sch 00:08:46:7
235 14 589 SWP-Dugas 2 W.J18A.4x- Sir William Perkins s Sch 00:08:47:2
236 5 238 WBS-van Gelderen 1 J15A.2x Windsor Boys Sch 00:08:47:2
237 11 169 CAN-Jack 1 J18A.4+ Canford Sch 00:08:47:7
238 2 149 HAM-Andrews 1 J16A.2- Hampton Sch BC 00:08:47:9
239 10 31 NSC-Cann 1 J18A.2- Norwich Sch 00:08:48:4
240 3 142 HAM-Woodall 1 J16A.2- Hampton Sch BC 00:08:48:9
241 6 691 HED-Milne 2 W.J15A.4x+ Headington Sch 00:08:49:2
242 14 674 HWG-B 15 2 J15A.4x+ RGS High Wycombe 00:08:49:3
243 3 81 ASL-Brunsberg 1 W.J18A.2x American Sch 00:08:49:7
244 11 44 NSC-Burrell 1 J18A.2- Norwich Sch 00:08:49:8
245 15 526 EMA-Silver 2 J16A.4x- Emanuel Sch 00:08:49:8
246 7 270 SBT-Sutton 1 W.J15A.4x+ Surbiton H Sch 00:08:50:0
247 8 511 ETN-Honnor 2 J16A.8+ Eton Coll 00:08:50:1
248 17 18 BAE-Watkins 1 J18A.2x Barn Elms 00:08:50:7
249 1 215 LEA-Froggatt-Brown 1 W.J16A.4+ Lea RC 00:08:51:4
250 4 146 HAM-Bridge 1 J16A.2- Hampton Sch BC 00:08:51:6
251 8 273 COX-Stringer 1 W.J15A.4x+ City of Oxford 00:08:52:4
252 4 73 HED-Pullinger 1 W.J18A.2x Headington Sch 00:08:52:4
253 5 109 HEN-Kay 1 W.J18A.2x Henley RC 00:08:52:5
254 9 280 LEH-Deol 1 W.J15A.4x+ Lady E Holles 00:08:52:7
255 8 58 TSS-Jonas 1 J16A.2x Tideway Scullers Sch 00:08:53:0
256 5 650 GLT-Turner 2 W.J15A.8+ Godolphin Sch 00:08:53:1
257 7 173 SBT-Brister-Runnacles 1 W.JSchA.4- Surbiton H Sch 00:08:53:3
258 6 637 LTU-Seal 2 W.J16A.4x- Latymer Upper Sch 00:08:53:5
259 1 207 PHS-J18 1 W.J18A.4+ Putney High Sch 00:08:53:6
260 15 672 WBS-Blake 2 J15A.4x+ Windsor Boys Sch 00:08:53:6
261 12 32 WLT-Jenkinson 1 J18A.2- Walton RC 00:08:54:8
262 13 45 LVA-Oliver 1 J18A.2- LVS Ascot BC 00:08:55:1
263 6 240 NSC-J15 V 1 J15A.2x Norwich Sch 00:08:55:5
264 5 612 HAB-Frankel 2 W.J16A.8+ HMSG RC 00:08:56:1
265 8 608 BDS-Burton 2 J15A.8+ 2nd VIII Bedford Sch 00:08:56:2
266 10 281 BKS-Mckean 1 W.J15A.4x+ Becket RC 00:08:56:3
267 6 646 SBT-Mustafa 2 W.J15A.8+ Surbiton H Sch 00:08:56:4
268 7 649 PHS-Newsholme 2 W.J15A.8+ Putney High Sch 00:08:56:5
269 9 62 HEN-Sidgwick 1 J16A.2x Henley RC 00:08:56:6
270 10 189 KGS J16 1 J16A.4+ Kingston G Sch 00:08:56:7
271 2 312 HEN-Drury 1 W.J15A.4+ Henley RC 00:08:56:9
272 15 588 ABV-Surman 2 W.J18A.4x- A B Severn 00:08:57:1
273 7 630 KSE-Garrett 2 W.J16A.4x- Kings Sch Ely 00:08:57:2
274 2 206 HEN-Sotnick 1 W.J18A.4+ Henley RC 00:08:57:2
275 8 622 COX-Turner-Frick 2 W.J16A.4x- City of Oxford 00:08:57:3
276 3 199 LEH-bowyer 1 W.J18A.4+ Lady E Holles 00:08:57:4
277 6 86 LTU-Thomas 1 W.J18A.2x Latymer Upper Sch 00:08:57:5
278 16 667 CCS-Falck Award 2 J15A.4x+ Claires Court Sch 00:08:57:6
279 10 67 TRC-Murray 1 J16A.2x Thames RC 00:08:57:7
280 10 264 HAM-C 1 J15A.4+ Hampton Sch BC 00:08:57:7
281 14 37 WLT-Cleary 1 J18A.2- Walton RC 00:08:57:8
282 20 555 CAN-J15 2 J15A.8+ Canford Sch 00:08:58:1
283 11 193 HAM-Chan 1 J16A.4+ Hampton Sch BC 00:08:58:6
284 4 209 LEH-Mason 1 W.J18A.4+ Lady E Holles 00:08:58:7
285 12 195 ETN-Howard 1 J16A.4+ Eton Coll 00:08:58:8
286 7 245 MHD-Hughes 1 J15A.2x Maidenhead RC 00:08:59:0
287 8 242 WBS-Frobisher 1 J15A.2x Windsor Boys Sch 00:08:59:2
288 1 114 LEH 1 W.J18A.2- Lady E Holles 00:08:59:4
289 5 200 HED-Smith 1 W.J18A.4+ Headington Sch 00:08:59:5
290 17 681 GMS-Bradley 2 J15A.4x+ Gt Marlow Sch 00:08:59:8
291 13 181 CAN-Bartlett 1 J16A.4+ Canford Sch 00:09:00:3
292 7 87 LLA-Jenkins 1 W.J18A.2x Llandaff RC 00:09:00:5
293 2 214 LTU-Jones 1 W.J16A.4+ Latymer Upper Sch 00:09:00:9
294 25 486 TKC-Demargne 2 J18A.4x- Team Keane 00:09:00:9
295 3 213 TSS-Joss 1 W.J16A.4+ Tideway Scullers Sch 00:09:01:1
296 8 108 HED-Hornby 1 W.J18A.2x Headington Sch 00:09:01:2
297 12 171 HAM - Linqvist 1 J18A.4+ Hampton Sch BC 00:09:01:3
298 2 116 HEN-Jonsson 1 W.J18A.2- Henley RC 00:09:01:5
299 18 673 TKC-Sprackling 2 J15A.4x+ Team Keane 00:09:01:5
300 1 211 LEH-Noursadeghi 1 W.J16A.4- Lady E Holles 00:09:01:7
301 9 627 WLT-Stenning 2 W.J16A.4x- Walton RC 00:09:02:4
302 3 314 PHS-Bridges 1 W.J15A.4+ Putney High Sch 00:09:02:7
303 9 100 TRC-Munyard 1 W.J18A.2x Thames RC 00:09:03:5
304 6 615 SPG-Boot 2 W.J16A.8+ St Pauls Girls Sch BC 00:09:04:0
305 10 628 MOC-Richards 2 W.J16A.4x- Monmouth Comprehensive Sch 00:09:04:0
306 10 111 TSS-Wedderburn 1 W.J18A.2x Tideway Scullers Sch 00:09:04:3
307 6 208 MBC-Parker 1 W.J18A.4+ Molesey BC 00:09:04:6
308 9 610 HAM-Hettiaratchy 2 J15A.8+ 2nd VIII Hampton Sch BC 00:09:04:8
309 11 66 WBS-Cleare 1 J16A.2x Windsor Boys Sch 00:09:05:0
310 1 132 BKS-Bates 1 W.J16A.2x Becket RC 00:09:05:2
311 11 626 TRC-Kelly 2 W.J16A.4x- Thames RC 00:09:06:3
312 19 662 MGN-Buckland 2 J15A.4x+ Magdalen Coll Sch 00:09:06:3
313 16 597 CAN-Doyle 2 W.J18A.4x- Canford Sch 00:09:06:4
314 18 26 WIN-St John Butler 1 J18A.2x Winchester Coll 00:09:06:6
315 20 677 ROS-Clatworthy 2 J15A.4x+ Ross RC 00:09:06:8
316 12 61 KSE-SCHOOL 1 J16A.2x Kings Sch Ely 00:09:06:9
317 9 248 TSS-Thompson 1 J15A.2x Tideway Scullers Sch 00:09:07:3
318 10 235 WLT-Kiss 1 J15A.2x Walton RC 00:09:07:3
319 14 192 LVA-Tuohy 1 J16A.4+ LVS Ascot BC 00:09:07:6
320 5 151 LTU-Harrison 1 J16A.2- Latymer Upper Sch 00:09:08:0
321 11 96 LTU-Lloyd 1 W.J18A.2x Latymer Upper Sch 00:09:08:1
322 12 94 LTU-Fabrizio 1 W.J18A.2x Latymer Upper Sch 00:09:08:4
323 4 212 PHS-Zedda James 1 W.J16A.4+ Putney High Sch 00:09:08:4
324 4 320 KRC-B 1 W.J15A.4+ Kingston RC 00:09:08:4
325 6 150 KGS-J16 1 J16A.2- Kingston G Sch 00:09:08:9
326 7 141 ETN-Vignial 1 J16A.2- Eton Coll 00:09:09:0
327 19 22 WGT-Mahmood 1 J18A.2x Whitgift Sch BC 00:09:09:2
328 11 705 SHV-Lee 2 W.J15A.4x+ Shiplake Vikings 00:09:09:9
329 11 252 BDS-Lorna 1 J15A.4+ Bedford Sch 00:09:10:0
330 21 678 MGN-Bradbery 2 J15A.4x+ Magdalen Coll Sch 00:09:10:1
331 12 692 WLT-Catlin 2 W.J15A.4x+ Walton RC 00:09:10:1
332 8 651 EMA-Polak 2 W.J15A.8+ Emanuel Sch 00:09:10:2
333 13 274 SBT-Sanders 1 W.J15A.4x+ Surbiton H Sch 00:09:10:5
334 14 702 ROS-Ryan 2 W.J15A.4x+ Ross RC 00:09:10:9
335 12 621 MBC-Henderson 2 W.J16A.4x- Molesey BC 00:09:11:4
336 5 217 LEH 1 W.J16A.4+ Lady E Holles 00:09:11:8
337 13 110 SBT-Croft 1 W.J18A.2x Surbiton H Sch 00:09:12:3
338 3 112 HEN-Edwards 1 W.J18A.2- Henley RC 00:09:12:5
339 13 629 BMS-Hale 2 W.J16A.4x- Bedford Modern Sch 00:09:12:5
340 15 703 MOC-Harrison 2 W.J15A.4x+ Monmouth Comprehensive Sch 00:09:12:7
341 17 585 LYT-Tombolis 2 W.J18A.4x- LYR Tradesmen 00:09:13:5
342 11 243 MBC-Williams 1 J15A.2x Molesey BC 00:09:13:6
343 7 205 BMS-Ball 1 W.J18A.4+ Bedford Modern Sch 00:09:13:6
344 16 689 LEH-Pillay 2 W.J15A.4x+ Lady E Holles 00:09:13:8
345 22 671 TFN-Trovalusci 2 J15A.4x+ Tiffin Sch 00:09:14:2
346 14 106 LTU-Hdjw 1 W.J18A.2x Latymer Upper Sch 00:09:14:9
347 18 594 COX-Clempson 2 W.J18A.4x- City of Oxford 00:09:15:2
348 8 640 WLT-Gray 2 W.JSchA.4- Walton RC 00:09:15:4
349 15 76 GLB-Samuel 1 W.J18A.2x Globe 00:09:15:5
350 16 74 KCA-Hofmann 1 W.J18A.2x Kings Sch Canterbury 00:09:16:1
351 6 220 EMA-Beams 1 W.J16A.4+ Emanuel Sch 00:09:16:2
352 17 93 SWP-Garnham 1 W.J18A.2x Sir William Perkins s Sch 00:09:16:5
353 1 299 ROS-Phillips 1 W.J15A.2x Ross RC 00:09:16:6
354 18 105 STN-Hannam 1 W.J18A.2x Staines 00:09:16:7
355 5 310 LEH-Guest 1 W.J15A.4+ Lady E Holles 00:09:17:0
356 8 143 LTU-Rowland 1 J16A.2- Latymer Upper Sch 00:09:17:4
357 19 78 ABV-Skinner 1 W.J18A.2x A B Severn 00:09:17:5
358 23 655 WBS-Davis 2 J15A.4x+ Windsor Boys Sch 00:09:17:6
359 9 648 KGS-1 2 W.J15A.8+ Kingston G Sch 00:09:18:2
360 14 633 SES-Prower 2 W.J16A.4x- St Edwards Sch 00:09:18:4
361 2 138 TSS-Supple 1 W.J16A.2x Tideway Scullers Sch 00:09:18:6
362 2 641 MHD-Harding 2 W.J16A.4- Maidenhead RC 00:09:18:9
363 9 152 ETN-Hodson 1 J16A.2- Eton Coll 00:09:19:0
364 20 75 COX-Millard 1 W.J18A.2x City of Oxford 00:09:19:0
365 6 313 KGS-1 1 W.J15A.4+ Kingston G Sch 00:09:19:1
366 24 661 MOC-Chilcott 2 J15A.4x+ Monmouth Comprehensive Sch 00:09:19:2
367 7 216 GMS-Peace 1 W.J16A.4+ Gt Marlow Sch 00:09:19:2
368 17 269 NOW-Sperring-Toy 2 W.J15A.4x+ Northwich RC 00:09:19:3
369 3 131 KSE - HILL 1 W.J16A.2x Kings Sch Ely 00:09:19:5
370 18 693 SWP-Jordan 2 W.J15A.4x+ Sir William Perkins s Sch 00:09:19:6
371 19 697 ABV-Jones 2 W.J15A.4x+ A B Severn 00:09:20:2
372 4 128 WLT-Stenning 1 W.J16A.2x Walton RC 00:09:20:7
373 10 144 ETN-Pooley 1 J16A.2- Eton Coll 00:09:20:9
374 13 64 WGT-Martin 1 J16A.2x Whitgift Sch BC 00:09:21:1
375 5 126 SBT-Slater 1 W.J16A.2x Surbiton H Sch 00:09:21:4
376 7 315 SES-Thomas 1 W.J15A.4+ St Edwards Sch 00:09:21:8
377 8 204 HAB-Hunter 1 W.J18A.4+ HMSG RC 00:09:21:9
378 2 297 TSS-Mavra 1 W.J15A.2x Tideway Scullers Sch 00:09:22:2
379 21 83 SWP-Fountain 1 W.J18A.2x Sir William Perkins s Sch 00:09:22:8
380 22 98 MHD-Ross-Masson 1 W.J18A.2x Maidenhead RC 00:09:23:3
381 23 84 COX-Beaver 1 W.J18A.2x City of Oxford 00:09:23:6
382 16 530 WGT-Pringle 2 J16A.4x- Whitgift Sch BC 00:09:23:8
383 4 120 HED-Butler 1 W.J18A.2- Headington Sch 00:09:24:5
384 12 258 NSC-J15 IV 1 J15A.4+ Norwich Sch 00:09:24:6
385 24 77 SWP-Taylor 1 W.J18A.2x Sir William Perkins s Sch 00:09:24:7
386 14 47 ABV-Mitchell 1 J16A.2x A B Severn 00:09:24:7
387 25 680 DUL-Endurance 2 J15A.4x+ Dulwich Coll 00:09:24:8
388 25 99 KSE-HILL HOUSE 1 W.J18A.2x Kings Sch Ely 00:09:25:5
389 26 675 MBC-B 2 J15A.4x+ Molesey BC 00:09:26:0
390 5 113 HED-Haskins 1 W.J18A.2- Headington Sch 00:09:26:4
391 10 607 KGS- Stroud mk 2 2 J15A.8+ 2nd VIII Kingston G Sch 00:09:26:8
392 8 226 GLT-Lane 1 W.J16A.4+ Godolphin Sch 00:09:26:9
393 12 247 BAE-Woods 1 J15A.2x Barn Elms 00:09:27:4
394 26 89 LYT-Winyard 1 W.J18A.2x LYR Tradesmen 00:09:27:4
395 20 696 BMS-Eales 2 W.J15A.4x+ Bedford Modern Sch 00:09:27:4
396 3 302 STN-Burton 1 W.J15A.2x Staines 00:09:27:6
397 6 123 MBC-Dunford 1 W.J16A.2x Molesey BC 00:09:28:0
398 19 591 MHD-Howell 2 W.J18A.4x- Maidenhead RC 00:09:28:0
399 13 241 HWG-A 2x 15 1 J15A.2x RGS High Wycombe 00:09:28:2
400 20 592 LYT-Thomson 2 W.J18A.4x- LYR Tradesmen 00:09:28:3
401 13 161 CAN-Hosking 1 J18A.4+ Canford Sch 00:09:29:0
402 21 700 TKC-Egelie 2 W.J15A.4x+ Team Keane 00:09:29:3
403 9 221 KGS-GJ16 4+ 1 W.J16A.4+ Kingston G Sch 00:09:29:4
404 27 229 KSE-SCHOOL B 1 J15A.4x+ Kings Sch Ely 00:09:29:6
405 27 72 LTU-Marshall 1 W.J18A.2x Latymer Upper Sch 00:09:30:0
406 11 148 ETN-Whiteley 1 J16A.2- Eton Coll 00:09:30:3
407 10 225 HAB-Blagbrough 1 W.J16A.4+ HMSG RC 00:09:30:4
408 28 85 KGS-Gibson 1 W.J18A.2x Kingston G Sch 00:09:31:2
409 15 65 WLT-Armella 1 J16A.2x Walton RC 00:09:32:0
410 4 305 BMS-Eales 1 W.J15A.2x Bedford Modern Sch 00:09:32:1
411 22 694 MBC-Catling-Hall 2 W.J15A.4x+ Molesey BC 00:09:32:2
412 8 318 HAB-Frankel 1 W.J15A.4+ HMSG RC 00:09:32:5
413 23 701 SPG-Davidson 2 W.J15A.4x+ St Pauls Girls Sch BC 00:09:33:9
414 10 647 CAN-Milner 2 W.J15A.8+ Canford Sch 00:09:33:9
415 5 306 WLT-Catlin 1 W.J15A.2x Walton RC 00:09:34:0
416 11 219 GLT-Bryant 1 W.J16A.4+ Godolphin Sch 00:09:34:6
417 16 68 LYT-Delfs 1 J16A.2x LYR Tradesmen 00:09:34:6
418 7 122 ABV-Surman 1 W.J16A.2x A B Severn 00:09:34:9
419 6 283 STN-Knight 1 W.J15A.2x Staines 00:09:37:0
420 6 119 WLT-Alexopoulos 1 W.J18A.2- Walton RC 00:09:37:6
421 7 287 SWP-Martin 1 W.J15A.2x Sir William Perkins s Sch 00:09:38:6
422 8 289 SWP-Faukentoft-Hansen 1 W.J15A.2x Sir William Perkins s Sch 00:09:38:9
423 8 121 SPG-Strong 1 W.J16A.2x St Pauls Girls Sch BC 00:09:39:1
424 9 137 SBT-McCarthy 1 W.J16A.2x Surbiton H Sch 00:09:39:2
425 24 709 SWP-Martin 2 W.J15A.4x+ Sir William Perkins s Sch 00:09:39:3
426 29 79 MHD-Tomasik 1 W.J18A.2x Maidenhead RC 00:09:39:9
427 9 293 SWP-Hawkes 1 W.J15A.2x Sir William Perkins s Sch 00:09:40:3
428 28 665 TKC-Esin 2 J15A.4x+ Team Keane 00:09:40:3
429 21 598 BAE-Arney 2 W.J18A.4x- Barn Elms 00:09:40:5
430 25 268 LYT-Newhouse 1 W.J15A.4x+ LYR Tradesmen 00:09:41:2
431 12 222 CAN-Hewett 1 W.J16A.4+ Canford Sch 00:09:41:4
432 10 304 ROS-Ryan 1 W.J15A.2x Ross RC 00:09:41:4
433 15 638 CAN-Hewett 2 W.J16A.4x- Canford Sch 00:09:41:5
434 13 260 KGS-Thom 1 J15A.4+ Kingston G Sch 00:09:42:1
435 11 307 ABV-McDermott 1 W.J15A.2x A B Severn 00:09:42:3
436 22 595 KCS-Nicol 2 W.J18A.4x- Kings College Sch 00:09:43:8
437 30 102 BAE-Griffin 1 W.J18A.2x Barn Elms 00:09:44:0
438 26 713 BMS-Andrew 2 W.J15A.4x+ Bedford Modern Sch 00:09:44:0
439 31 80 WLT-Furber 1 W.J18A.2x Walton RC 00:09:44:2
440 15 183 WGT-Pringle 1 J16A.4+ Whitgift Sch BC 00:09:45:3
441 10 129 SPG-Spielman 1 W.J16A.2x St Pauls Girls Sch BC 00:09:47:1
442 32 92 LEH-Rhodes 1 W.J18A.2x Lady E Holles 00:09:48:7
443 12 284 TSS-Campbell 1 W.J15A.2x Tideway Scullers Sch 00:09:49:0
444 27 710 GMS-Smith 2 W.J15A.4x+ Gt Marlow Sch 00:09:50:4
445 9 316 KGS-2 1 W.J15A.4+ Kingston G Sch 00:09:51:0
446 28 276 SPG-Stuart-Smith 1 W.J15A.4x+ St Pauls Girls Sch BC 00:09:51:2
447 13 292 WHS A Bassadone 1 W.J15A.2x Wimbledon High Sch 00:09:52:4
448 29 699 NSC-WJ154x+ 2 W.J15A.4x+ Norwich Sch 00:09:52:8
449 16 635 TKC-Keene 2 W.J16A.4x- Team Keane 00:09:53:6
450 29 234 Hampton 1 J15A.4x+ Hampton Sch BC 00:09:53:8
451 9 210 CAN-Doyle 1 W.J18A.4+ Canford Sch 00:09:54:2
452 14 285 BMS-Burchell 1 W.J15A.2x Bedford Modern Sch 00:09:54:6
453 30 695 WHS-Bassadone 2 W.J15A.4x+ Wimbledon High Sch 00:09:55:3
454 31 706 HED-Shah 2 W.J15A.4x+ Headington Sch 00:09:58:2
455 11 127 SHV-Gordon 1 W.J16A.2x Shiplake Vikings 00:09:59:8
456 30 687 KCA-Dominic 2 J15A.4x+ Kings Sch Canterbury 00:10:03:3
457 15 309 LYT-Golub 1 W.J15A.2x LYR Tradesmen 00:10:03:5
458 16 295 STN-Mason 1 W.J15A.2x Staines 00:10:04:4
459 12 125 PHS-Head 1 W.J16A.2x Putney High Sch 00:10:04:4
460 13 223 WHS-Wong 1 W.J16A.4+ Wimbledon High Sch 00:10:06:1
461 7 115 BAE-Gracey 1 W.J18A.2- Barn Elms 00:10:07:2
462 33 107 TFN-Tribe 1 W.J18A.2x Tiffin Sch 00:10:09:3
463 17 298 WHS-Wallace 1 W.J15A.2x Wimbledon High Sch 00:10:12:8
464 32 707 KGS-1 2 W.J15A.4x+ Kingston G Sch 00:10:14:6
465 18 301 KSE-Kirkpatrick 1 W.J15A.2x Kings Sch Ely 00:10:18:6
466 13 130 PHS-Saunders 1 W.J16A.2x Putney High Sch 00:10:19:1
467 19 291 NSC-Shaw 1 W.J15A.2x Norwich Sch 00:10:25:6
468 33 698 KCA-Josie 2 W.J15A.4x+ Kings Sch Canterbury 00:10:26:7
469 20 294 WHS-Hill 1 W.J15A.2x Wimbledon High Sch 00:10:31:0
470 34 714 WHS-Ellis 2 W.J15A.4x+ Wimbledon High Sch 00:10:31:1
471 35 708 WHS-Crawford Collins 2 W.J15A.4x+ Wimbledon High Sch 00:10:33:8
472 36 712 TKC-Nichols 2 W.J15A.4x+ Team Keane 00:10:39:9
473 37 271 ASL-Benami Narasimhan 1 W.J15A.4x+ American Sch 00:10:54:0
Time Only 1 ASL/TSS-Joss/Skow 1 J18A.2x American Sch Lon/Tideway Scullers 00:08:02:3
Time Only 34 KGS/KCA -Spurling/Allinson 1 J18A.2- Kingston GS/Kings Canterbury 00:08:24:0
Time Only 227 SWP - Z 1 W.J16A.4+ Sir William Perkins s Sch 00:09:15:1
Scratched 135 ASL-Lambden 1 W.J16A.2x American Sch 00:00:00:0
Scratched 668 ASL-Gorrivan 2 J15A.4x+ American Sch 00:00:00:0
Scratched 7 BAE-Holt 1 J18A.2x Barn Elms 00:00:00:0
Scratched 272 BAE-Oliver 1 W.J15A.4x+ Barn Elms 00:00:00:0
Scratched 197 BRY-Wilson 1 J16A.4+ Bryanston Sch 00:00:00:0
Scratched 230 BRY-Pollock 1 J15A.4x+ Bryanston Sch 00:00:00:0
Scratched 232 BRY-Chadwick 1 J15A.4x+ Bryanston Sch 00:00:00:0
Scratched 286 BRY-Cuninghame 1 W.J15A.2x Bryanston Sch 00:00:00:0
Scratched 669 BRY- J15 4x+ T.O. 1 2 J15A.4x+ Bryanston Sch 00:00:00:0
Scratched 686 BRY- J15 4x+ T.O. 2 2 J15A.4x+ Bryanston Sch 00:00:00:0
Scratched 688 BRY-J16 4+ T.O. 2 J16A.4+ Bryanston Sch 00:00:00:0
Scratched 69 BUR-Barrett 1 J16A.2x Burway RC 00:00:00:0
Scratched 670 CAN-Herrington 2 J15A.4x+ Canford Sch 00:00:00:0
Scratched 704 CAN-Marley 2 W.J15A.4x+ Canford Sch 00:00:00:0
Scratched 491 CHH- J16 4x- 2 J18A.4x- Charterhouse Sch BC 00:00:00:0
Scratched 676 CHH-Campbell-Wilson 2 J15A.4x+ Charterhouse Sch BC 00:00:00:0
Scratched 4 CCS-Yate 1 J18A.2x Claires Court Sch 00:00:00:0
Scratched 11 CCS-Costley 1 J18A.2x Claires Court Sch 00:00:00:0
Scratched 55 CCS-Fairley 1 J16A.2x Claires Court Sch 00:00:00:0
Scratched 517 CCS-Broadhead 2 J16A.4x- Claires Court Sch 00:00:00:0
Scratched 528 CCS-Hall 2 J16A.4x- Claires Court Sch 00:00:00:0
Scratched 682 CCS-Hall 2 J15A.4x+ Claires Court Sch 00:00:00:0
Scratched 184 DUL-Polaris 1 J16A.4+ Dulwich Coll 00:00:00:0
Scratched 507 DUL-Howard 2 J16A.8+ Dulwich Coll 00:00:00:0
Scratched 539 DUL-Tatman 2 J16A.8+ 2nd VIII Dulwich Coll 00:00:00:0
Scratched 296 GLB-Richards 1 W.J15A.2x Globe 00:00:00:0
Scratched 711 GLB-Steven 2 W.J15A.4x+ Globe 00:00:00:0
Scratched 233 GMS-Rhodes 1 J15A.4x+ Gt Marlow Sch 00:00:00:0
Scratched 319 GMS-Fisher 1 W.J15A.4+ Gt Marlow Sch 00:00:00:0
Scratched 495 HAM - Warrington 2 J18A.4x- Hampton Sch BC 00:00:00:0
Scratched 117 HED-Stephens 1 W.J18A.2- Headington Sch 00:00:00:0
Scratched 201 HAB-Du Toit 1 W.J18A.4+ HMSG RC 00:00:00:0
Scratched 53 KSE - HEREWARD 1 J16A.2x Kings Sch Ely 00:00:00:0
Scratched 124 KSE-Withburger 1 W.J16A.2x Kings Sch Ely 00:00:00:0
Scratched 20 KGS-J18 1 J18A.2x Kingston G Sch 00:00:00:0
Scratched 49 KGS-J16 1 J16A.2x Kingston G Sch 00:00:00:0
Scratched 134 KGS-Betts 1 W.J16A.2x Kingston G Sch 00:00:00:0
Scratched 321 KGS-3 1 W.J15A.4+ Kingston G Sch 00:00:00:0
Scratched 104 KRC-Thompson 1 W.J18A.2x Kingston RC 00:00:00:0
Scratched 82 LEH-Witt 1 W.J18A.2x Lady E Holles 00:00:00:0
Scratched 282 LTU-C 1 W.J15A.4x+ Latymer Upper Sch 00:00:00:0
Scratched 596 LTU-Marshall 2 W.J18A.4x- Latymer Upper Sch 00:00:00:0
Scratched 601 LTU-J15B 2 J15A.8+ 2nd VIII Latymer Upper Sch 00:00:00:0
Scratched 519 LOS Rolls 2 J16A.4x- Lon Oratory Sch 00:00:00:0
Scratched 196 LVA-Crisp 1 J16A.4+ LVS Ascot BC 00:00:00:0
Scratched 290 LVA-Binmore 1 W.J15A.2x LVS Ascot BC 00:00:00:0
Scratched 652 LYT-Newhouse 2 W.J15A.8+ LYR Tradesmen 00:00:00:0
Scratched 23 MHD-Rowe 1 J18A.2x Maidenhead RC 00:00:00:0
Scratched 13 MAR-Fairman 1 J18A.2x Marlow RC 00:00:00:0
Scratched 27 MAR-Simon 1 J18A.2x Marlow RC 00:00:00:0
Scratched 33 MAR-Smith 1 J18A.2- Marlow RC 00:00:00:0
Scratched 51 MAR-Crossley 1 J16A.2x Marlow RC 00:00:00:0
Scratched 101 MAR-Bird 1 W.J18A.2x Marlow RC 00:00:00:0
Scratched 118 MAR-Fennell 1 W.J18A.2- Marlow RC 00:00:00:0
Scratched 140 MAR-Eveleigh 1 W.J16A.2x Marlow RC 00:00:00:0
Scratched 182 MAR-Denson 1 J16A.4+ Marlow RC 00:00:00:0
Scratched 203 MAR-Strudwick 1 W.J18A.4+ Marlow RC 00:00:00:0
Scratched 218 MAR-Berry 1 W.J16A.4+ Marlow RC 00:00:00:0
Scratched 279 MAR-Clark-Pratt 1 W.J15A.4x+ Marlow RC 00:00:00:0
Scratched 288 MAR-Huggett 1 W.J15A.2x Marlow RC 00:00:00:0
Scratched 471 MAR-Long 2 J18A.4x- Marlow RC 00:00:00:0
Scratched 518 MAR-Marshall 2 J16A.4x- Marlow RC 00:00:00:0
Scratched 563 MAR-Strudwick 2 W.J18A.8+ Marlow RC 00:00:00:0
Scratched 620 MAR-Brooks 2 W.J16A.4x- Marlow RC 00:00:00:0
Scratched 95 MBC-Truett 1 W.J18A.2x Molesey BC 00:00:00:0
Scratched 97 NOW-George 1 W.J18A.2x Northwich RC 00:00:00:0
Scratched 139 NOW-Shirley 1 W.J16A.2x Northwich RC 00:00:00:0
Scratched 54 NSC-Walton 1 J16A.2x Norwich Sch 00:00:00:0
Scratched 59 NSC-Dixon 1 J16A.2x Norwich Sch 00:00:00:0
Scratched 136 PHS-Awe 1 W.J16A.2x Putney High Sch 00:00:00:0
Scratched 300 PHS-Hendry 1 W.J15A.2x Putney High Sch 00:00:00:0
Scratched 617 PHS 2 W.J16A.8+ Putney High Sch 00:00:00:0
Scratched 523 RAD-Rhodes 2 J16A.4x- Radley College 00:00:00:0
Scratched 666 RAD-Wakeley 2 J15A.4x+ Radley College 00:00:00:0
Scratched 70 RDH-Sharp 1 J16A.2x Radnor House Sch 00:00:00:0
Scratched 624 SHV-Hatlee 2 W.J16A.4x- Shiplake Vikings 00:00:00:0
Scratched 103 SWP-Dalton 1 W.J18A.2x Sir William Perkins s Sch 00:00:00:0
Scratched 267 SWP-Phelps 1 W.J15A.4x+ Sir William Perkins s Sch 00:00:00:0
Scratched 303 SWP-Moss 1 W.J15A.2x Sir William Perkins s Sch 00:00:00:0
Scratched 180 SES-Moore 1 J16A.4+ St Edwards Sch 00:00:00:0
Scratched 224 SES-Cope 1 W.J16A.4+ St Edwards Sch 00:00:00:0
Scratched 454 SES-Dei Rossi 2 J18A.8+ St Edwards Sch 00:00:00:0
Scratched 202 SPG-Lewis 1 W.J18A.4+ St Pauls Girls Sch BC 00:00:00:0
Scratched 256 SPS 2 1 J15A.4+ St Pauls Sch BC 00:00:00:0
Scratched 261 SPS-Daniel 1 J15A.4+ St Pauls Sch BC 00:00:00:0
Scratched 609 SPS 2 2 J15A.8+ 2nd VIII St Pauls Sch BC 00:00:00:0
Scratched 478 STA-Molloy 2 J18A.4x- Star Club 00:00:00:0
Scratched 521 STA-White 2 J16A.4x- Star Club 00:00:00:0
Scratched 582 STA-Upex 2 W.J18A.4x- Star Club 00:00:00:0
Scratched 311 SBT-Mustafa 1 W.J15A.4+ Surbiton H Sch 00:00:00:0
Scratched 634 SBT-Richards 2 W.J16A.4x- Surbiton H Sch 00:00:00:0
Scratched 683 TKC-Hulme 2 J15A.4x+ Team Keane 00:00:00:0
Scratched 90 TRC-Knight 1 W.J18A.2x Thames RC 00:00:00:0
Scratched 39 TSS-Hatteland-Dunn 1 J18A.2- Tideway Scullers Sch 00:00:00:0
Scratched 145 TSS-Pilkington Massey 1 J16A.2- Tideway Scullers Sch 00:00:00:0
Scratched 684 TFN-Herath 2 J15A.4x+ Tiffin Sch 00:00:00:0
Scratched 583 WBK-Suter 2 W.J18A.4x- Walbrook 00:00:00:0
Scratched 2 WRC-Hearnden 1 J18A.2x Wallingford RC 00:00:00:0
Scratched 60 WRC-Robson 1 J16A.2x Wallingford RC 00:00:00:0
Scratched 244 WRC-Mangion 1 J15A.2x Wallingford RC 00:00:00:0
Scratched 266 WRC-Campbell 1 W.J15A.4x+ Wallingford RC 00:00:00:0
Scratched 308 WRC-Barton 1 W.J15A.2x Wallingford RC 00:00:00:0
Scratched 503 17ws16 8 2 J16A.8+ Westminster Sch 00:00:00:0
Scratched 91 WEY-Goochild 1 W.J18A.2x Weybridge RC 00:00:00:0
Scratched 257 WEY-Shore 1 J15A.4+ Weybridge RC 00:00:00:0
Scratched 616 WEY-Brosnan 2 W.J16A.8+ Weybridge RC 00:00:00:0
Scratched 133 WHS-Mercer 1 W.J16A.2x Wimbledon High Sch 00:00:00:0
Scratched 533 WRR-Hall 2 J16A.4x- Worcester RC 00:00:00:0
Scratched 636 WRR-Silvester 2 W.J16A.4x- Worcester RC 00:00:00:0